Time;durP1;ratioP1;P1;durP2;ratioP2;P2;SDS_P1;SDS_P2;PMS_P1;PMS_P2;Temp;Humidity;BMP_temperature;BMP_pressure;BME280_temperature;BME280_humidity;BME280_pressure;Samples;Min_cycle;Max_cycle;Signal;HPM_P1;HPM_P2
2022/03/16 00:00:58;;;;;;;24.57;15.60;;;9.30;75.10;;;;;;4981083;28;20183;-91
2022/03/16 00:03:24;;;;;;;28.33;16.33;;;9.10;75.20;;;;;;4981884;28;20207;-92
2022/03/16 00:21:16;;;;;;;29.48;16.88;;;9.00;76.50;;;;;;5055062;28;20201;-90
2022/03/16 00:23:42;;;;;;;29.37;16.00;;;9.00;76.40;;;;;;5053647;28;20213;-91
2022/03/16 00:26:08;;;;;;;30.30;17.53;;;8.90;76.30;;;;;;5037266;28;20202;-90
2022/03/16 00:28:34;;;;;;;27.10;16.63;;;9.10;76.40;;;;;;5019712;28;20429;-90
2022/03/16 00:31:02;;;;;;;29.15;19.10;;;8.90;76.10;;;;;;4999597;28;20444;-90
2022/03/16 00:33:28;;;;;;;25.73;16.58;;;8.80;76.30;;;;;;5015571;28;20178;-90
2022/03/16 00:35:53;;;;;;;28.73;17.20;;;8.80;76.60;;;;;;5017435;28;20253;-90
2022/03/16 00:38:19;;;;;;;29.20;16.70;;;8.80;76.80;;;;;;5000140;28;20597;-93
2022/03/16 00:40:45;;;;;;;29.40;16.33;;;8.80;76.90;;;;;;5018128;28;20830;-92
2022/03/16 00:43:11;;;;;;;25.50;16.10;;;8.80;76.90;;;;;;5019380;28;20209;-92
2022/03/16 00:45:36;;;;;;;29.20;16.90;;;8.70;76.90;;;;;;5020894;28;20191;-92
2022/03/16 00:48:02;;;;;;;23.80;15.53;;;8.70;77.00;;;;;;5022118;28;20533;-92
2022/03/16 00:50:28;;;;;;;28.13;15.67;;;8.80;77.00;;;;;;5017896;28;20206;-92
2022/03/16 00:52:54;;;;;;;29.87;16.20;;;8.80;77.00;;;;;;5016262;28;20418;-92
2022/03/16 00:55:20;;;;;;;29.20;17.17;;;8.80;76.90;;;;;;5018319;28;20457;-92
2022/03/16 00:57:45;;;;;;;32.00;19.73;;;8.80;76.90;;;;;;5025771;28;20183;-92
2022/03/16 01:00:12;;;;;;;27.30;16.47;;;8.80;76.90;;;;;;5026573;28;20777;-91
2022/03/16 01:02:38;;;;;;;27.80;17.50;;;8.90;76.90;;;;;;5027894;28;20290;-91
2022/03/16 01:05:05;;;;;;;28.60;16.40;;;8.90;76.80;;;;;;5031667;28;20246;-92
2022/03/16 01:07:31;;;;;;;25.40;15.52;;;8.90;76.70;;;;;;5070948;28;20176;-92
2022/03/16 01:09:56;;;;;;;25.57;16.70;;;8.90;76.70;;;;;;5076410;28;20207;-90
2022/03/16 01:12:22;;;;;;;32.03;17.00;;;9.00;76.60;;;;;;5075896;28;20188;-90
2022/03/16 01:14:48;;;;;;;29.23;17.10;;;9.00;76.30;;;;;;5073628;28;20177;-90
2022/03/16 01:17:14;;;;;;;27.33;16.43;;;9.10;76.10;;;;;;5060557;28;20482;-90
2022/03/16 01:19:39;;;;;;;32.50;17.73;;;9.10;76.00;;;;;;5052619;28;20231;-91
2022/03/16 01:22:06;;;;;;;29.83;16.13;;;9.10;75.80;;;;;;5054402;28;20170;-90
2022/03/16 01:24:32;;;;;;;25.75;17.25;;;8.90;75.80;;;;;;5060064;28;20173;-90
2022/03/16 01:26:59;;;;;;;26.33;16.55;;;9.00;76.10;;;;;;5062864;28;20186;-90
2022/03/16 01:29:25;;;;;;;26.33;16.67;;;8.90;76.20;;;;;;5056795;28;20200;-90
2022/03/16 01:31:55;;;;;;;27.83;16.70;;;8.90;76.30;;;;;;5060395;28;20177;-92
2022/03/16 01:34:21;;;;;;;34.40;19.05;;;9.00;76.40;;;;;;5063138;28;20173;-91
2022/03/16 01:36:48;;;;;;;29.13;16.73;;;9.00;76.30;;;;;;5063144;28;20216;-91
2022/03/16 01:39:15;;;;;;;25.83;16.40;;;8.90;76.30;;;;;;5063274;28;20185;-91
2022/03/16 01:41:42;;;;;;;30.65;17.85;;;9.00;76.30;;;;;;5063325;28;20237;-92
2022/03/16 01:44:48;;;;;;;32.80;17.83;;;8.90;76.40;;;;;;5062426;28;20202;-89
2022/03/16 02:18:09;;;;;;;31.38;18.95;;;8.10;78.40;;;;;;4998946;28;20227;-90
2022/03/16 02:20:35;;;;;;;31.10;19.07;;;8.00;78.60;;;;;;4965772;28;20186;-91
2022/03/16 02:23:04;;;;;;;38.60;19.30;;;7.90;79.20;;;;;;5000181;28;20282;-90
2022/03/16 02:25:31;;;;;;;30.85;19.05;;;7.90;79.50;;;;;;4966264;28;20439;-91
2022/03/16 02:27:58;;;;;;;32.30;19.00;;;7.90;79.80;;;;;;4983788;28;20562;-88
2022/03/16 02:30:27;;;;;;;36.75;19.92;;;7.80;79.80;;;;;;4987853;28;20246;-88
2022/03/16 02:32:53;;;;;;;36.63;19.63;;;7.70;80.10;;;;;;5011099;28;20183;-89
2022/03/16 02:35:19;;;;;;;31.63;20.17;;;7.60;80.70;;;;;;5010048;28;20217;-92
2022/03/16 02:37:45;;;;;;;35.53;20.80;;;7.60;80.90;;;;;;4975274;28;20365;-89
2022/03/16 02:40:18;;;;;;;33.30;19.40;;;7.60;80.90;;;;;;4990676;28;20180;-89
2022/03/16 02:42:43;;;;;;;35.03;19.63;;;7.70;81.10;;;;;;4989612;28;20450;-89
2022/03/16 02:45:10;;;;;;;38.67;19.67;;;7.50;80.80;;;;;;4987486;28;20195;-89
2022/03/16 02:47:38;;;;;;;35.42;21.38;;;7.50;81.50;;;;;;4992041;28;20411;-91
2022/03/16 02:50:04;;;;;;;31.95;19.13;;;7.50;81.50;;;;;;4998964;28;20271;-92
2022/03/16 02:52:30;;;;;;;32.63;20.10;;;7.50;81.50;;;;;;4985138;28;20198;-91
2022/03/16 02:54:55;;;;;;;35.27;21.10;;;7.50;81.60;;;;;;4987086;28;20199;-92
2022/03/16 02:57:21;;;;;;;34.87;19.90;;;7.40;81.60;;;;;;4987940;28;20303;-91
2022/03/16 02:59:47;;;;;;;37.60;20.87;;;7.40;81.70;;;;;;5015738;28;20176;-90
2022/03/16 03:02:14;;;;;;;37.37;22.13;;;7.40;81.50;;;;;;4995536;28;20295;-91
2022/03/16 03:04:40;;;;;;;35.97;20.67;;;7.50;82.30;;;;;;4988847;28;20194;-92
2022/03/16 03:07:07;;;;;;;32.90;20.13;;;7.50;81.60;;;;;;4999176;28;20194;-91
2022/03/16 03:09:33;;;;;;;35.20;21.13;;;7.40;81.40;;;;;;4983428;28;20184;-92
2022/03/16 03:11:59;;;;;;;36.70;20.53;;;7.30;81.70;;;;;;4982361;28;20183;-91
2022/03/16 03:14:28;;;;;;;33.67;21.17;;;7.30;81.80;;;;;;4982761;28;20425;-91
2022/03/16 03:16:54;;;;;;;37.13;22.23;;;7.20;82.00;;;;;;4987008;28;20242;-90
2022/03/16 03:19:23;;;;;;;40.83;22.88;;;7.20;82.20;;;;;;4996965;28;20175;-91
2022/03/16 03:21:50;;;;;;;34.05;21.05;;;7.30;82.20;;;;;;4984126;28;20183;-91
2022/03/16 03:24:16;;;;;;;35.85;19.92;;;7.40;81.90;;;;;;4982098;28;20214;-91
2022/03/16 03:26:45;;;;;;;45.00;21.40;;;7.50;81.60;;;;;;4983714;28;20748;-91
2022/03/16 03:29:11;;;;;;;35.65;22.35;;;7.60;81.40;;;;;;4998214;28;20188;-89
2022/03/16 03:31:37;;;;;;;39.40;23.10;;;7.60;81.70;;;;;;5001482;28;20183;-91
2022/03/16 03:34:03;;;;;;;36.47;22.23;;;7.60;80.80;;;;;;5001393;28;20476;-91
2022/03/16 03:36:29;;;;;;;44.53;24.88;;;7.60;80.40;;;;;;5003554;28;20663;-90
2022/03/16 03:38:56;;;;;;;37.67;23.23;;;7.70;80.20;;;;;;5010076;28;20179;-90
2022/03/16 03:41:21;;;;;;;43.75;24.30;;;7.50;79.70;;;;;;4990441;28;20206;-91
2022/03/16 03:43:48;;;;;;;36.07;22.53;;;7.40;80.00;;;;;;5001486;28;20801;-91
2022/03/16 03:46:13;;;;;;;43.53;22.17;;;7.50;80.10;;;;;;5001165;28;20895;-91
2022/03/16 03:48:39;;;;;;;43.10;22.47;;;7.50;80.00;;;;;;4985963;28;20211;-91
2022/03/16 03:51:05;;;;;;;47.90;26.70;;;7.40;79.80;;;;;;4983196;28;20639;-90
2022/03/16 03:53:31;;;;;;;40.20;23.60;;;7.30;80.10;;;;;;4983664;28;20493;-91
2022/03/16 03:55:56;;;;;;;42.60;23.93;;;7.40;80.40;;;;;;4970930;28;20274;-90
2022/03/16 03:58:22;;;;;;;40.70;24.60;;;7.40;80.30;;;;;;5008504;28;20198;-90
2022/03/16 04:00:49;;;;;;;44.50;23.97;;;7.40;80.30;;;;;;5000236;28;20191;-92
2022/03/16 04:03:16;;;;;;;41.35;22.52;;;7.30;80.40;;;;;;5001953;28;20477;-88
2022/03/16 04:05:42;;;;;;;43.20;25.58;;;7.20;80.60;;;;;;5000256;28;20210;-90
2022/03/16 04:14:56;;;;;;;40.88;22.63;;;6.90;81.40;;;;;;5004860;28;20168;-92
2022/03/16 04:17:22;;;;;;;48.03;23.70;;;6.90;81.90;;;;;;4993790;28;20282;-89
2022/03/16 04:19:48;;;;;;;47.20;25.23;;;7.00;82.00;;;;;;5018367;28;20187;-91
2022/03/16 04:22:13;;;;;;;45.57;25.53;;;7.00;82.00;;;;;;5001697;28;20418;-89
2022/03/16 04:24:39;;;;;;;41.33;23.33;;;7.10;82.10;;;;;;5001333;28;20443;-89
2022/03/16 04:27:05;;;;;;;47.80;24.43;;;7.00;81.70;;;;;;5001482;28;20263;-92
2022/03/16 04:29:30;;;;;;;45.80;24.10;;;7.00;81.80;;;;;;5001315;28;20171;-89
2022/03/16 04:31:58;;;;;;;46.23;24.50;;;7.00;81.80;;;;;;5000408;28;20167;-89
2022/03/16 04:34:24;;;;;;;50.60;25.60;;;6.80;81.70;;;;;;5015633;28;20171;-89
2022/03/16 04:36:50;;;;;;;41.45;24.60;;;6.80;82.20;;;;;;5006397;28;20209;-90
2022/03/16 04:39:16;;;;;;;40.67;25.70;;;6.70;82.50;;;;;;4977762;28;20650;-90
2022/03/16 04:41:43;;;;;;;45.63;25.27;;;6.70;82.90;;;;;;4985821;28;20183;-90
2022/03/16 04:44:09;;;;;;;43.28;24.75;;;6.70;83.10;;;;;;4996353;28;20231;-90
2022/03/16 04:46:35;;;;;;;46.13;25.50;;;6.90;83.20;;;;;;5000496;28;20206;-90
2022/03/16 04:49:01;;;;;;;43.63;24.42;;;7.10;83.00;;;;;;4982924;28;20210;-90
2022/03/16 04:51:27;;;;;;;49.73;27.40;;;7.10;82.50;;;;;;4980687;28;20175;-90
2022/03/16 04:57:14;;;;;;;42.13;24.35;;;7.00;82.10;;;;;;5000045;28;20421;-92
2022/03/16 04:59:40;;;;;;;48.07;26.83;;;7.00;82.20;;;;;;4980522;28;20175;-92
2022/03/16 05:02:06;;;;;;;44.80;25.00;;;7.00;82.20;;;;;;4980524;28;20421;-92
2022/03/16 05:04:31;;;;;;;44.00;25.40;;;6.90;82.20;;;;;;4980062;28;20465;-91
2022/03/16 05:06:57;;;;;;;47.47;27.10;;;6.80;82.40;;;;;;4985790;28;20195;-91
2022/03/16 05:09:25;;;;;;;39.67;23.30;;;6.90;82.70;;;;;;4986403;28;20175;-92
2022/03/16 05:11:50;;;;;;;41.58;23.33;;;7.00;82.50;;;;;;4993658;28;20406;-92
2022/03/16 05:14:17;;;;;;;45.10;24.67;;;7.00;82.20;;;;;;4996327;28;20192;-89
2022/03/16 05:16:43;;;;;;;51.00;26.65;;;7.10;82.30;;;;;;4981207;28;20250;-90
2022/03/16 05:19:08;;;;;;;48.60;27.60;;;6.90;82.20;;;;;;4986401;28;20183;-89
2022/03/16 05:21:34;;;;;;;45.87;24.87;;;6.90;82.30;;;;;;4989576;28;20643;-89
2022/03/16 05:24:00;;;;;;;45.13;25.60;;;6.80;82.30;;;;;;4981159;28;20485;-89
2022/03/16 05:26:25;;;;;;;46.60;26.50;;;6.70;82.50;;;;;;4987412;28;20218;-90
2022/03/16 05:28:52;;;;;;;42.90;25.37;;;6.70;82.80;;;;;;5000453;28;20205;-89
2022/03/16 05:31:19;;;;;;;45.42;25.77;;;6.70;83.00;;;;;;4986103;28;20199;-90
2022/03/16 05:33:45;;;;;;;49.40;27.63;;;6.50;83.20;;;;;;4989523;28;20193;-90
2022/03/16 05:36:11;;;;;;;45.63;25.13;;;6.50;83.50;;;;;;5008940;28;20199;-90
2022/03/16 05:38:37;;;;;;;41.70;25.40;;;6.60;83.60;;;;;;4985996;28;20656;-89
2022/03/16 05:41:03;;;;;;;48.03;26.00;;;6.70;83.50;;;;;;4989166;28;20227;-90
2022/03/16 05:43:28;;;;;;;40.63;24.83;;;6.70;83.40;;;;;;4996607;28;20329;-89
2022/03/16 05:45:54;;;;;;;44.90;26.23;;;6.60;83.20;;;;;;4994749;28;20199;-89
2022/03/16 05:48:20;;;;;;;42.53;25.07;;;6.80;83.30;;;;;;4995649;28;20176;-90
2022/03/16 05:50:46;;;;;;;41.60;23.50;;;6.70;82.90;;;;;;4979472;28;20472;-90
2022/03/16 05:53:13;;;;;;;41.63;22.23;;;6.60;83.00;;;;;;4981452;28;20662;-90
2022/03/16 05:55:38;;;;;;;44.55;24.17;;;6.80;83.80;;;;;;4982707;28;20533;-89
2022/03/16 05:58:04;;;;;;;43.90;22.73;;;6.90;83.70;;;;;;4982812;28;20225;-90
2022/03/16 06:00:31;;;;;;;40.80;24.90;;;6.90;82.60;;;;;;4981924;28;20190;-89
2022/03/16 06:02:57;;;;;;;38.28;23.55;;;7.00;82.10;;;;;;4981572;28;20458;-89
2022/03/16 06:05:24;;;;;;;41.67;23.25;;;6.90;82.00;;;;;;4984429;28;20199;-89
2022/03/16 06:07:50;;;;;;;35.15;22.05;;;7.10;82.20;;;;;;5020305;28;20226;-89
2022/03/16 06:10:17;;;;;;;44.97;23.75;;;7.00;81.80;;;;;;5006076;28;20183;-89
2022/03/16 06:12:57;;;;;;;43.42;23.08;;;7.10;81.70;;;;;;4987732;28;20234;-89
2022/03/16 06:15:25;;;;;;;40.22;23.48;;;7.00;81.50;;;;;;4993058;28;20230;-88
2022/03/16 06:17:58;;;;;;;42.97;24.48;;;6.90;81.60;;;;;;5014210;28;20191;-87
2022/03/16 06:20:26;;;;;;;39.88;23.63;;;7.00;81.80;;;;;;5004268;28;20168;-87
2022/03/16 06:22:52;;;;;;;39.88;22.70;;;7.20;81.70;;;;;;4985588;28;20219;-88
2022/03/16 06:25:17;;;;;;;43.87;23.17;;;7.40;81.50;;;;;;4984946;28;20758;-88
2022/03/16 06:27:43;;;;;;;41.42;23.63;;;7.40;80.70;;;;;;4985189;28;20419;-88
2022/03/16 06:30:11;;;;;;;46.17;22.37;;;7.10;80.60;;;;;;4982231;28;20182;-87
2022/03/16 06:32:36;;;;;;;36.83;21.27;;;7.00;81.00;;;;;;4982483;28;20859;-88
2022/03/16 06:35:06;;;;;;;40.33;22.67;;;7.00;81.50;;;;;;4963668;28;20219;-88
2022/03/16 06:37:32;;;;;;;39.45;20.17;;;7.00;81.50;;;;;;4969063;28;20487;-89
2022/03/16 06:39:58;;;;;;;39.97;22.67;;;7.00;81.70;;;;;;4970745;28;20180;-89
2022/03/16 06:42:24;;;;;;;37.60;21.10;;;7.20;81.80;;;;;;4988231;28;20690;-87
2022/03/16 06:44:50;;;;;;;37.90;21.87;;;7.30;81.60;;;;;;5000600;28;20433;-88
2022/03/16 06:47:16;;;;;;;43.13;22.63;;;7.40;80.90;;;;;;5019219;28;20203;-87
2022/03/16 06:49:42;;;;;;;40.27;23.70;;;7.10;80.90;;;;;;5001218;28;20167;-87
2022/03/16 06:52:19;;;;;;;42.55;21.58;;;7.10;81.40;;;;;;4988917;28;20415;-88
2022/03/16 06:54:45;;;;;;;37.22;21.35;;;7.20;81.20;;;;;;4984652;28;20241;-89
2022/03/16 06:57:11;;;;;;;33.33;19.90;;;7.00;81.20;;;;;;4987041;28;20198;-89
2022/03/16 06:59:39;;;;;;;34.07;18.63;;;7.00;81.70;;;;;;4987486;28;20179;-89
2022/03/16 07:02:09;;;;;;;35.60;20.42;;;7.00;81.70;;;;;;4988408;28;20415;-88
2022/03/16 07:04:35;;;;;;;33.92;20.45;;;7.30;81.70;;;;;;4991705;28;20241;-88
2022/03/16 07:07:00;;;;;;;31.50;19.13;;;7.40;81.20;;;;;;4999769;28;20187;-88
2022/03/16 07:09:27;;;;;;;32.93;19.83;;;7.30;80.70;;;;;;5016641;28;20587;-89
2022/03/16 07:11:54;;;;;;;31.42;18.40;;;7.50;80.80;;;;;;4998349;28;20183;-89
2022/03/16 07:14:32;;;;;;;32.60;17.27;;;7.70;80.30;;;;;;4999591;28;20202;-89
2022/03/16 07:16:59;;;;;;;32.25;20.23;;;7.60;79.70;;;;;;5014666;28;20226;-88
2022/03/16 07:19:25;;;;;;;32.40;18.35;;;7.50;79.60;;;;;;4996831;28;20234;-88
2022/03/16 07:21:51;;;;;;;29.50;16.27;;;7.50;79.80;;;;;;4993806;28;20187;-89
2022/03/16 07:24:17;;;;;;;32.60;19.52;;;7.50;79.80;;;;;;4980827;28;20537;-89
2022/03/16 07:26:45;;;;;;;29.57;17.93;;;7.80;79.90;;;;;;4981417;28;20234;-89
2022/03/16 07:29:11;;;;;;;38.72;19.23;;;7.80;79.40;;;;;;4999270;28;20941;-87
2022/03/16 07:31:37;;;;;;;32.97;18.50;;;7.90;79.10;;;;;;4988230;28;20175;-86
2022/03/16 07:34:03;;;;;;;31.70;19.10;;;7.90;78.60;;;;;;4977108;28;20421;-89
2022/03/16 07:36:31;;;;;;;32.88;18.13;;;7.70;78.40;;;;;;4999322;28;20207;-86
2022/03/16 07:38:57;;;;;;;37.38;18.65;;;7.80;78.80;;;;;;5001086;28;20271;-86
2022/03/16 07:41:23;;;;;;;32.07;19.10;;;7.90;78.80;;;;;;4981601;28;20207;-87
2022/03/16 07:43:49;;;;;;;34.53;17.63;;;7.80;78.60;;;;;;4981222;28;20498;-87
2022/03/16 07:46:14;;;;;;;27.93;17.83;;;7.80;78.80;;;;;;4981097;28;20199;-87
2022/03/16 07:48:43;;;;;;;32.47;18.23;;;7.70;79.00;;;;;;4979458;28;20419;-88
2022/03/16 07:51:09;;;;;;;33.53;19.42;;;7.90;79.00;;;;;;4979756;28;20199;-87
2022/03/16 07:53:35;;;;;;;36.13;17.73;;;7.80;78.70;;;;;;4997787;28;20670;-87
2022/03/16 07:56:01;;;;;;;34.47;16.53;;;7.90;79.00;;;;;;4982795;28;20199;-87
2022/03/16 07:58:33;;;;;;;29.07;16.77;;;8.20;78.80;;;;;;4983338;28;21020;-87
2022/03/16 08:00:59;;;;;;;33.53;16.20;;;8.50;78.30;;;;;;4981694;28;20171;-87
2022/03/16 08:03:26;;;;;;;31.97;16.67;;;8.70;77.50;;;;;;4981266;28;20677;-87
2022/03/16 08:05:52;;;;;;;29.33;17.35;;;8.50;76.50;;;;;;5000807;28;20215;-87
2022/03/16 08:08:18;;;;;;;26.97;15.50;;;8.50;76.60;;;;;;4980534;28;20191;-87
2022/03/16 08:10:44;;;;;;;29.75;15.10;;;8.70;76.60;;;;;;4963851;28;20191;-88
2022/03/16 08:13:10;;;;;;;26.70;15.27;;;8.80;76.00;;;;;;4981225;28;20183;-89
2022/03/16 08:15:36;;;;;;;28.10;15.43;;;8.50;75.80;;;;;;4983386;28;21008;-87
2022/03/16 08:18:02;;;;;;;26.23;16.15;;;8.50;76.40;;;;;;4980980;28;20217;-87
2022/03/16 08:20:27;;;;;;;29.93;16.40;;;8.50;76.50;;;;;;4980182;28;20266;-87
2022/03/16 08:22:56;;;;;;;28.97;16.10;;;8.70;76.90;;;;;;4980346;28;20462;-91
2022/03/16 08:25:23;;;;;;;24.33;15.20;;;9.00;76.50;;;;;;4984758;28;20213;-92
2022/03/16 08:27:49;;;;;;;24.88;13.80;;;9.10;76.20;;;;;;5003121;28;20229;-92
2022/03/16 08:30:16;;;;;;;26.63;14.73;;;9.40;75.70;;;;;;5006629;28;20175;-92
2022/03/16 08:32:42;;;;;;;29.55;14.70;;;9.40;74.90;;;;;;4992646;28;20183;-92
2022/03/16 08:35:08;;;;;;;25.98;14.82;;;9.50;74.30;;;;;;5002338;28;20167;-91
2022/03/16 08:37:35;;;;;;;25.65;14.60;;;9.60;74.50;;;;;;4980824;28;20180;-91
2022/03/16 08:40:02;;;;;;;22.17;12.95;;;9.90;74.20;;;;;;4979112;28;20594;-92
2022/03/16 08:42:28;;;;;;;23.13;12.15;;;9.90;73.30;;;;;;4978728;28;20202;-91
2022/03/16 08:44:55;;;;;;;25.08;14.27;;;9.60;72.80;;;;;;4978648;28;20266;-92
2022/03/16 08:47:21;;;;;;;23.85;14.55;;;9.70;73.40;;;;;;4979500;28;20219;-87
2022/03/16 08:49:50;;;;;;;25.67;13.07;;;9.90;73.60;;;;;;4980833;28;20531;-88
2022/03/16 08:52:15;;;;;;;25.33;15.15;;;10.10;73.40;;;;;;4980910;28;20175;-90
2022/03/16 08:54:41;;;;;;;22.23;13.40;;;10.30;72.80;;;;;;4978642;28;20186;-90
2022/03/16 08:57:09;;;;;;;24.17;12.68;;;10.30;72.40;;;;;;4979143;28;20248;-90
2022/03/16 08:59:35;;;;;;;18.98;11.77;;;10.10;72.10;;;;;;4982981;28;20183;-92
2022/03/16 09:02:01;;;;;;;20.75;11.90;;;10.10;72.30;;;;;;4965375;28;20183;-90
2022/03/16 09:04:27;;;;;;;26.97;13.77;;;9.90;72.60;;;;;;4980280;28;20253;-91
2022/03/16 09:06:53;;;;;;;20.63;12.20;;;10.00;72.70;;;;;;4991701;28;20197;-90
2022/03/16 09:09:19;;;;;;;22.10;12.40;;;10.30;72.90;;;;;;4990595;28;20176;-90
2022/03/16 09:11:45;;;;;;;21.77;12.82;;;10.50;72.40;;;;;;4962654;28;20620;-91
2022/03/16 09:14:12;;;;;;;21.37;12.63;;;10.50;71.60;;;;;;4978875;28;20187;-90
2022/03/16 09:16:38;;;;;;;23.20;13.30;;;10.50;71.50;;;;;;4978758;28;20218;-90
2022/03/16 09:19:04;;;;;;;21.35;13.23;;;10.40;71.60;;;;;;4980650;28;20187;-90
2022/03/16 09:21:29;;;;;;;20.67;12.70;;;10.40;71.90;;;;;;4982230;28;20175;-88
2022/03/16 09:23:55;;;;;;;21.47;11.77;;;10.50;71.90;;;;;;4972413;28;20498;-90
2022/03/16 09:26:21;;;;;;;19.50;11.03;;;10.60;71.40;;;;;;4998182;28;20179;-88
2022/03/16 09:28:48;;;;;;;21.65;13.00;;;10.90;71.60;;;;;;5002319;28;20239;-87
2022/03/16 09:31:14;;;;;;;19.55;11.10;;;10.80;70.90;;;;;;5003953;28;20231;-90
2022/03/16 09:33:40;;;;;;;17.27;11.75;;;10.90;70.90;;;;;;5006241;28;20185;-90
2022/03/16 09:36:09;;;;;;;18.48;12.45;;;11.10;70.60;;;;;;5003908;28;20237;-90
2022/03/16 09:38:36;;;;;;;21.42;12.68;;;11.00;70.30;;;;;;5005188;28;20316;-90
2022/03/16 09:41:02;;;;;;;17.00;11.05;;;11.00;70.50;;;;;;5015205;28;20250;-90
2022/03/16 09:43:38;;;;;;;19.30;10.88;;;11.20;70.40;;;;;;5019675;28;20210;-89
2022/03/16 09:46:09;;;;;;;18.63;10.88;;;11.50;70.20;;;;;;5007235;28;20206;-89
2022/03/16 09:48:35;;;;;;;20.67;11.23;;;11.60;69.60;;;;;;5011177;28;20216;-90
2022/03/16 09:51:01;;;;;;;19.67;11.40;;;11.60;69.40;;;;;;5018871;28;20654;-88
2022/03/16 09:53:27;;;;;;;16.50;11.80;;;11.70;69.10;;;;;;5007021;28;20167;-89
2022/03/16 09:55:53;;;;;;;21.38;12.65;;;11.70;68.60;;;;;;5017853;28;20198;-89
2022/03/16 09:58:20;;;;;;;21.20;11.77;;;11.70;68.40;;;;;;5022334;28;20175;-89
2022/03/16 10:00:47;;;;;;;21.70;13.07;;;11.60;68.20;;;;;;5038215;28;20171;-89
2022/03/16 10:03:15;;;;;;;22.63;12.52;;;11.60;68.70;;;;;;5017434;28;20219;-87
2022/03/16 10:05:41;;;;;;;23.75;12.85;;;11.60;68.60;;;;;;5012281;28;20195;-88
2022/03/16 10:08:08;;;;;;;19.45;11.35;;;11.60;68.80;;;;;;5002216;28;20273;-90
2022/03/16 10:13:23;;;;;;;20.35;11.48;;;12.00;68.80;;;;;;5019329;28;20213;-91
2022/03/16 10:15:50;;;;;;;18.48;11.02;;;12.00;68.50;;;;;;5001377;28;20207;-91
2022/03/16 10:18:19;;;;;;;19.13;11.18;;;12.10;68.40;;;;;;5019590;28;20705;-91
2022/03/16 10:20:46;;;;;;;24.55;10.70;;;12.10;68.40;;;;;;5001878;28;20183;-92
2022/03/16 10:23:20;;;;;;;16.90;11.20;;;12.20;68.20;;;;;;4985429;28;20301;-91
2022/03/16 10:25:58;;;;;;;16.88;11.93;;;12.40;68.00;;;;;;5002075;28;20224;-91
2022/03/16 10:28:26;;;;;;;20.45;11.85;;;12.50;67.30;;;;;;5020957;28;20534;-90
2022/03/16 10:30:57;;;;;;;16.65;10.32;;;12.40;67.80;;;;;;5002052;28;20206;-90
2022/03/16 10:33:33;;;;;;;16.80;11.15;;;12.50;67.80;;;;;;5000537;28;20229;-89
2022/03/16 10:36:07;;;;;;;15.82;9.05;;;12.60;67.60;;;;;;5019414;28;20194;-90
2022/03/16 10:38:38;;;;;;;15.07;9.55;;;13.00;67.10;;;;;;5000950;28;20182;-90
2022/03/16 10:47:02;;;;;;;15.10;9.90;;;13.20;65.50;;;;;;5018211;28;20217;-88
2022/03/16 10:49:30;;;;;;;14.60;10.40;;;13.50;65.40;;;;;;5000588;28;20186;-88
2022/03/16 10:52:10;;;;;;;17.25;11.48;;;13.60;64.50;;;;;;5001243;28;20182;-88
2022/03/16 10:54:38;;;;;;;15.75;10.27;;;13.70;64.60;;;;;;4996078;28;20218;-89
2022/03/16 10:57:08;;;;;;;15.60;11.05;;;13.70;64.30;;;;;;4981079;28;20199;-88
2022/03/16 10:59:34;;;;;;;19.80;12.23;;;13.80;64.40;;;;;;4998937;28;20171;-89
2022/03/16 11:02:03;;;;;;;22.42;11.85;;;13.70;64.20;;;;;;4983726;28;20198;-89
2022/03/16 11:04:31;;;;;;;16.40;10.95;;;13.80;64.10;;;;;;4984021;28;20218;-88
2022/03/16 11:06:59;;;;;;;17.42;10.18;;;13.50;64.00;;;;;;4981705;28;20262;-90
2022/03/16 11:09:25;;;;;;;17.55;11.10;;;13.60;64.90;;;;;;4991616;28;20195;-89
2022/03/16 11:14:36;;;;;;;13.95;10.48;;;13.90;64.10;;;;;;5001773;28;20275;-90
2022/03/16 11:17:03;;;;;;;18.13;11.00;;;14.10;63.80;;;;;;4981343;28;20633;-89
2022/03/16 11:19:29;;;;;;;16.25;9.70;;;14.00;63.70;;;;;;4995424;28;20209;-90
2022/03/16 11:22:30;;;;;;;16.05;10.25;;;14.10;64.20;;;;;;5002232;28;20257;-90
2022/03/16 11:25:10;;;;;;;21.92;12.55;;;14.20;63.50;;;;;;4922276;29;20185;-90
2022/03/16 11:27:46;;;;;;;14.82;9.43;;;14.00;63.80;;;;;;4975595;28;20201;-90
2022/03/16 11:30:26;;;;;;;15.55;10.30;;;14.20;64.20;;;;;;5002120;28;20190;-90
2022/03/16 11:32:58;;;;;;;13.60;8.95;;;14.30;63.80;;;;;;5003489;28;20198;-90
2022/03/16 11:35:30;;;;;;;13.82;9.63;;;14.40;63.60;;;;;;5000532;28;20203;-90
2022/03/16 11:38:05;;;;;;;22.48;11.18;;;14.40;63.60;;;;;;5000287;28;20183;-90
2022/03/16 11:40:31;;;;;;;15.15;8.73;;;14.60;63.60;;;;;;5019042;28;20151;-90
2022/03/16 11:43:04;;;;;;;15.73;10.35;;;14.50;63.40;;;;;;5011500;28;20202;-89
2022/03/16 11:45:37;;;;;;;22.05;12.35;;;14.50;63.60;;;;;;5000907;28;20757;-90
2022/03/16 11:48:34;;;;;;;20.02;10.93;;;14.40;63.80;;;;;;5001298;28;20187;-90
2022/03/16 11:51:09;;;;;;;21.27;11.35;;;14.40;63.70;;;;;;4997642;28;20167;-90
2022/03/16 11:53:47;;;;;;;16.00;11.13;;;14.20;63.60;;;;;;4983972;28;20576;-90
2022/03/16 11:56:23;;;;;;;20.52;11.48;;;14.00;64.50;;;;;;4998027;28;20199;-88
2022/03/16 11:58:54;;;;;;;14.57;9.73;;;14.30;65.00;;;;;;4998981;28;20178;-89
2022/03/16 12:01:30;;;;;;;18.25;11.23;;;14.40;64.20;;;;;;4992508;28;20250;-91
2022/03/16 12:04:19;;;;;;;17.98;10.80;;;14.00;64.40;;;;;;5000790;28;20271;-89
2022/03/16 12:06:51;;;;;;;16.85;10.27;;;14.00;64.40;;;;;;5001340;28;20203;-89
2022/03/16 12:09:21;;;;;;;17.67;11.10;;;14.00;65.00;;;;;;5002487;28;20559;-88
2022/03/16 12:15:11;;;;;;;17.52;12.00;;;13.90;65.00;;;;;;5013941;28;20166;-88
2022/03/16 12:17:41;;;;;;;18.90;11.48;;;14.10;65.10;;;;;;4998983;28;20191;-88
2022/03/16 12:20:42;;;;;;;20.33;11.32;;;13.90;64.80;;;;;;4997360;28;20179;-88
2022/03/16 12:23:14;;;;;;;16.70;10.90;;;14.00;65.40;;;;;;4962588;28;20615;-88
2022/03/16 12:25:42;;;;;;;15.93;11.00;;;14.40;65.20;;;;;;4997230;28;20187;-88
2022/03/16 12:31:15;;;;;;;19.23;11.55;;;14.80;63.80;;;;;;5012823;28;20179;-88
2022/03/16 12:33:48;;;;;;;18.88;11.73;;;14.80;63.50;;;;;;4983144;28;20179;-88
2022/03/16 12:36:44;;;;;;;21.35;13.05;;;14.60;63.10;;;;;;4989636;28;20195;-89
2022/03/16 12:39:13;;;;;;;15.95;11.18;;;14.70;63.40;;;;;;4971039;28;20187;-88
2022/03/16 12:44:23;;;;;;;18.65;11.23;;;14.80;63.60;;;;;;4997087;28;20725;-88
2022/03/16 12:47:01;;;;;;;22.93;12.07;;;14.70;63.50;;;;;;4982478;28;20281;-88
2022/03/16 12:49:28;;;;;;;17.77;11.80;;;14.40;63.70;;;;;;4984293;28;20410;-91
2022/03/16 12:52:01;;;;;;;19.08;12.05;;;14.30;64.50;;;;;;4982010;28;20190;-91
2022/03/16 12:54:29;;;;;;;25.90;13.13;;;14.20;65.00;;;;;;4963816;28;20223;-91
2022/03/16 12:57:08;;;;;;;18.77;11.60;;;14.10;65.20;;;;;;4968593;28;20211;-91
2022/03/16 12:59:48;;;;;;;20.30;11.93;;;13.90;65.50;;;;;;4994095;28;20179;-91
2022/03/16 13:02:25;;;;;;;29.15;13.13;;;14.00;66.20;;;;;;5012354;28;20201;-92
2022/03/16 13:05:00;;;;;;;20.10;12.23;;;14.00;66.00;;;;;;4999509;28;20199;-91
2022/03/16 13:07:27;;;;;;;18.40;12.18;;;13.90;66.50;;;;;;4997317;28;20187;-91
2022/03/16 13:10:00;;;;;;;24.65;12.13;;;13.90;66.70;;;;;;5012779;28;20158;-91
2022/03/16 13:12:26;;;;;;;21.05;12.93;;;13.90;66.80;;;;;;5013037;28;20198;-91
2022/03/16 13:14:55;;;;;;;20.30;12.43;;;13.80;67.00;;;;;;4997152;28;20678;-92
2022/03/16 13:17:23;;;;;;;22.25;10.77;;;13.70;67.40;;;;;;4987262;28;20553;-91
2022/03/16 13:19:50;;;;;;;22.90;13.25;;;13.70;67.80;;;;;;5000475;28;20187;-90
2022/03/16 13:22:22;;;;;;;17.25;11.27;;;13.80;67.50;;;;;;4985087;28;20183;-90
2022/03/16 13:24:59;;;;;;;18.80;10.95;;;13.90;67.50;;;;;;4997417;28;20306;-91
2022/03/16 13:27:32;;;;;;;16.98;10.93;;;13.70;67.50;;;;;;4990665;28;20195;-89
2022/03/16 13:29:59;;;;;;;20.45;12.63;;;13.70;67.90;;;;;;4975945;28;20229;-90
2022/03/16 13:32:36;;;;;;;25.17;11.93;;;13.80;67.70;;;;;;4983120;28;20186;-90
2022/03/16 13:35:28;;;;;;;21.90;11.10;;;14.00;67.60;;;;;;4983131;28;20242;-91
2022/03/16 13:38:08;;;;;;;19.60;11.70;;;14.20;67.20;;;;;;4978575;28;20194;-91
2022/03/16 13:40:38;;;;;;;20.92;12.68;;;14.10;66.90;;;;;;4985415;28;20175;-91
2022/03/16 13:43:07;;;;;;;23.25;12.02;;;14.00;67.00;;;;;;4985627;28;20206;-91
2022/03/16 13:45:48;;;;;;;20.27;11.90;;;14.20;67.50;;;;;;4990705;28;20203;-91
2022/03/16 13:48:22;;;;;;;17.67;11.00;;;14.30;67.10;;;;;;5000667;28;20239;-91
2022/03/16 13:50:55;;;;;;;21.40;10.98;;;14.40;66.80;;;;;;5003610;28;20210;-90
2022/03/16 13:53:41;;;;;;;15.50;9.93;;;14.00;67.20;;;;;;4991592;28;20206;-91
2022/03/16 13:56:23;;;;;;;18.27;11.20;;;14.10;67.70;;;;;;4994773;28;20646;-91